Time;durP1;ratioP1;P1;durP2;ratioP2;P2;SDS_P1;SDS_P2;PMS_P1;PMS_P2;Temp;Humidity;BMP_temperature;BMP_pressure;BME280_temperature;BME280_humidity;BME280_pressure;Samples;Min_cycle;Max_cycle;Signal;HPM_P1;HPM_P2
2023/03/10 00:00:46;;;;;;;0.75;0.20;;;;;;;;;;5096090;28;20569;-85
2023/03/10 00:03:14;;;;;;;2.35;0.70;;;;;;;;;;5096561;28;20143;-86
2023/03/10 00:05:42;;;;;;;0.65;0.65;;;;;;;;;;5098557;28;20142;-86
2023/03/10 00:08:11;;;;;;;1.15;0.30;;;;;;;;;;5097281;28;20420;-86
2023/03/10 00:10:41;;;;;;;0.63;0.20;;;;;;;;;;5096820;28;20066;-88
2023/03/10 00:13:09;;;;;;;0.68;0.20;;;;;;;;;;5096673;28;20047;-85
2023/03/10 00:15:37;;;;;;;0.50;0.30;;;;;;;;;;5097962;28;20050;-85
2023/03/10 00:18:06;;;;;;;1.85;0.60;;;;;;;;;;5101948;27;20051;-85
2023/03/10 00:20:34;;;;;;;2.08;0.93;;;;;;;;;;5099842;28;20508;-85
2023/03/10 00:23:02;;;;;;;0.45;0.45;;;;;;;;;;5101991;28;20516;-85
2023/03/10 00:25:30;;;;;;;0.45;0.35;;;;;;;;;;5102957;28;20052;-86
2023/03/10 00:28:00;;;;;;;2.08;1.02;;;;;;;;;;5105821;28;20050;-86
2023/03/10 00:30:29;;;;;;;0.20;0.20;;;;;;;;;;5103874;28;20055;-86
2023/03/10 00:33:00;;;;;;;1.17;0.60;;;;;;;;;;5101410;28;20047;-86
2023/03/10 00:35:28;;;;;;;1.75;0.38;;;;;;;;;;5101789;28;20052;-86
2023/03/10 00:37:56;;;;;;;0.10;0.10;;;;;;;;;;5099681;27;20055;-86
2023/03/10 00:40:25;;;;;;;0.82;0.80;;;;;;;;;;5101566;28;20444;-86
2023/03/10 00:42:53;;;;;;;1.55;0.43;;;;;;;;;;5104901;28;20048;-85
2023/03/10 00:45:23;;;;;;;0.98;0.55;;;;;;;;;;5103003;28;20054;-85
2023/03/10 00:47:51;;;;;;;2.28;0.82;;;;;;;;;;5103752;27;20051;-85
2023/03/10 00:50:19;;;;;;;0.63;0.40;;;;;;;;;;5102124;28;20048;-86
2023/03/10 00:52:50;;;;;;;0.68;0.50;;;;;;;;;;5104498;28;20052;-85
2023/03/10 00:55:18;;;;;;;2.08;0.60;;;;;;;;;;5102682;28;20043;-85
2023/03/10 00:57:46;;;;;;;0.35;0.13;;;;;;;;;;5102642;28;20053;-87
2023/03/10 01:00:16;;;;;;;0.10;0.10;;;;;;;;;;5099659;28;20130;-86
2023/03/10 01:02:46;;;;;;;0.80;0.55;;;;;;;;;;5105227;28;20054;-86
2023/03/10 01:05:15;;;;;;;10.25;0.52;;;;;;;;;;5102821;28;20048;-85
2023/03/10 01:07:43;;;;;;;2.40;0.45;;;;;;;;;;5103432;27;20051;-85
2023/03/10 01:10:12;;;;;;;0.20;0.20;;;;;;;;;;5100879;28;20044;-87
2023/03/10 01:12:40;;;;;;;1.17;0.30;;;;;;;;;;5100248;28;20050;-86
2023/03/10 01:15:09;;;;;;;0.20;0.20;;;;;;;;;;5100590;28;20476;-86
2023/03/10 01:17:37;;;;;;;0.32;0.32;;;;;;;;;;5103753;27;20039;-86
2023/03/10 01:20:08;;;;;;;0.10;0.10;;;;;;;;;;5101592;28;20047;-85
2023/03/10 01:22:37;;;;;;;0.10;0.10;;;;;;;;;;5101595;28;20055;-86
2023/03/10 01:25:06;;;;;;;1.85;0.50;;;;;;;;;;5096454;28;20067;-86
2023/03/10 01:27:34;;;;;;;3.58;0.52;;;;;;;;;;5099003;28;20436;-85
2023/03/10 01:30:02;;;;;;;1.25;0.38;;;;;;;;;;5097492;28;20043;-85
2023/03/10 01:32:31;;;;;;;0.60;0.50;;;;;;;;;;5100047;28;20551;-86
2023/03/10 01:34:59;;;;;;;2.67;1.23;;;;;;;;;;5096725;28;20048;-86
2023/03/10 01:37:29;;;;;;;2.55;0.80;;;;;;;;;;5098081;28;20406;-86
2023/03/10 01:39:57;;;;;;;0.82;0.47;;;;;;;;;;5099719;28;20052;-86
2023/03/10 01:42:25;;;;;;;0.63;0.30;;;;;;;;;;5097949;28;20059;-86
2023/03/10 01:45:07;;;;;;;0.30;0.30;;;;;;;;;;5097558;28;20048;-89
2023/03/10 01:47:35;;;;;;;0.80;0.20;;;;;;;;;;5097887;28;20055;-86
2023/03/10 01:50:05;;;;;;;0.10;0.10;;;;;;;;;;5095918;28;20358;-87
2023/03/10 01:52:35;;;;;;;0.10;0.10;;;;;;;;;;5099049;28;20132;-86
2023/03/10 01:55:07;;;;;;;1.25;0.28;;;;;;;;;;5097608;28;20147;-86
2023/03/10 01:57:37;;;;;;;0.10;0.10;;;;;;;;;;5100982;28;20047;-87
2023/03/10 02:00:11;;;;;;;0.13;0.13;;;;;;;;;;5099132;28;20109;-86
2023/03/10 02:02:46;;;;;;;0.70;0.30;;;;;;;;;;5096436;28;20671;-86
2023/03/10 02:05:15;;;;;;;0.80;0.50;;;;;;;;;;5096207;28;20116;-85
2023/03/10 02:07:45;;;;;;;0.52;0.52;;;;;;;;;;5098989;28;20455;-86
2023/03/10 02:10:14;;;;;;;0.20;0.20;;;;;;;;;;5096121;28;20046;-85
2023/03/10 02:12:43;;;;;;;1.75;0.57;;;;;;;;;;5094149;28;20415;-87
2023/03/10 02:15:12;;;;;;;0.40;0.38;;;;;;;;;;5098595;28;20050;-88
2023/03/10 02:17:40;;;;;;;0.57;0.47;;;;;;;;;;5095770;28;20055;-85
2023/03/10 02:20:12;;;;;;;0.20;0.20;;;;;;;;;;5092942;28;20110;-85
2023/03/10 02:22:41;;;;;;;0.25;0.25;;;;;;;;;;5095828;28;20048;-85
2023/03/10 02:25:15;;;;;;;0.38;0.30;;;;;;;;;;5096207;28;20036;-85
2023/03/10 02:27:46;;;;;;;0.30;0.22;;;;;;;;;;5094741;28;20050;-87
2023/03/10 02:30:16;;;;;;;2.40;0.60;;;;;;;;;;5095245;28;20047;-85
2023/03/10 02:32:46;;;;;;;0.85;0.35;;;;;;;;;;5100071;28;20163;-85
2023/03/10 02:35:15;;;;;;;0.20;0.20;;;;;;;;;;5096113;28;20052;-85
2023/03/10 02:37:43;;;;;;;0.60;0.20;;;;;;;;;;5091202;28;20044;-85
2023/03/10 02:40:28;;;;;;;0.10;0.10;;;;;;;;;;5098007;28;20134;-85
2023/03/10 02:42:59;;;;;;;0.30;0.30;;;;;;;;;;5095898;28;20055;-85
2023/03/10 02:45:32;;;;;;;1.40;0.25;;;;;;;;;;5096946;28;20044;-87
2023/03/10 02:48:00;;;;;;;0.20;0.20;;;;;;;;;;5093835;28;20040;-85
2023/03/10 02:50:30;;;;;;;0.85;0.43;;;;;;;;;;5099562;28;20507;-87
2023/03/10 02:53:02;;;;;;;0.10;0.10;;;;;;;;;;5097697;28;20055;-85
2023/03/10 02:55:30;;;;;;;0.65;0.63;;;;;;;;;;5097207;28;20062;-85
2023/03/10 02:58:01;;;;;;;0.20;0.20;;;;;;;;;;5093534;28;20052;-85
2023/03/10 03:00:29;;;;;;;0.98;0.60;;;;;;;;;;5098509;28;20444;-85
2023/03/10 03:02:58;;;;;;;2.05;0.73;;;;;;;;;;5090833;28;20404;-86
2023/03/10 03:05:26;;;;;;;0.20;0.20;;;;;;;;;;5097388;28;20055;-87
2023/03/10 03:07:54;;;;;;;1.55;0.30;;;;;;;;;;5097855;28;20302;-85
2023/03/10 03:10:23;;;;;;;0.10;0.10;;;;;;;;;;5097768;28;20044;-86
2023/03/10 03:12:51;;;;;;;0.90;0.38;;;;;;;;;;5095368;28;20053;-86
2023/03/10 03:15:21;;;;;;;0.32;0.22;;;;;;;;;;5095052;28;20048;-88
2023/03/10 03:17:50;;;;;;;0.55;0.35;;;;;;;;;;5096837;27;20132;-86
2023/03/10 03:20:20;;;;;;;0.10;0.10;;;;;;;;;;5094749;28;20044;-86
2023/03/10 03:22:48;;;;;;;0.25;0.25;;;;;;;;;;5093788;28;20511;-86
2023/03/10 03:25:18;;;;;;;0.10;0.10;;;;;;;;;;5095563;28;20043;-86
2023/03/10 03:27:46;;;;;;;0.40;0.40;;;;;;;;;;5092144;28;20462;-87
2023/03/10 03:30:16;;;;;;;0.10;0.10;;;;;;;;;;5096599;28;20422;-85
2023/03/10 03:32:48;;;;;;;0.20;0.20;;;;;;;;;;5098981;28;20050;-85
2023/03/10 03:35:19;;;;;;;0.30;0.30;;;;;;;;;;5092994;28;20541;-85
2023/03/10 03:37:47;;;;;;;0.65;0.30;;;;;;;;;;5093688;28;20035;-88
2023/03/10 03:40:16;;;;;;;0.17;0.17;;;;;;;;;;5093434;28;20052;-85
2023/03/10 03:42:45;;;;;;;0.25;0.25;;;;;;;;;;5093667;28;20048;-85
2023/03/10 03:45:14;;;;;;;0.10;0.10;;;;;;;;;;5098433;28;20044;-85
2023/03/10 03:47:43;;;;;;;0.10;0.10;;;;;;;;;;5095001;28;20043;-84
2023/03/10 03:50:14;;;;;;;0.10;0.10;;;;;;;;;;5094815;28;20054;-85
2023/03/10 03:52:42;;;;;;;0.35;0.30;;;;;;;;;;5096379;28;20438;-85
2023/03/10 03:55:11;;;;;;;2.10;0.55;;;;;;;;;;5096318;28;20089;-85
2023/03/10 03:57:40;;;;;;;0.70;0.57;;;;;;;;;;5099343;28;20406;-85
2023/03/10 04:00:10;;;;;;;0.25;0.22;;;;;;;;;;5094754;28;20547;-85
2023/03/10 04:02:39;;;;;;;0.25;0.25;;;;;;;;;;5092847;28;20665;-86
2023/03/10 04:05:08;;;;;;;0.10;0.10;;;;;;;;;;5095736;28;20047;-86
2023/03/10 04:07:38;;;;;;;0.95;0.35;;;;;;;;;;5098509;28;20434;-86
2023/03/10 04:10:07;;;;;;;0.20;0.20;;;;;;;;;;5092190;28;20049;-88
2023/03/10 04:12:35;;;;;;;0.52;0.32;;;;;;;;;;5094911;28;20051;-87
2023/03/10 04:15:04;;;;;;;1.75;0.38;;;;;;;;;;5095418;28;20059;-86
2023/03/10 04:17:32;;;;;;;0.20;0.15;;;;;;;;;;5092416;28;20051;-86
2023/03/10 04:20:01;;;;;;;0.10;0.10;;;;;;;;;;5095995;28;20051;-86
2023/03/10 04:22:35;;;;;;;0.30;0.30;;;;;;;;;;5095207;28;20045;-86
2023/03/10 04:25:05;;;;;;;0.20;0.20;;;;;;;;;;5097146;28;20051;-85
2023/03/10 04:27:34;;;;;;;0.70;0.35;;;;;;;;;;5091982;28;20055;-85
2023/03/10 04:30:02;;;;;;;0.10;0.10;;;;;;;;;;5095946;28;20483;-85
2023/03/10 04:32:31;;;;;;;0.10;0.10;;;;;;;;;;5096979;28;20416;-85
2023/03/10 04:34:59;;;;;;;0.40;0.40;;;;;;;;;;5094313;28;20069;-85
2023/03/10 04:37:27;;;;;;;0.10;0.10;;;;;;;;;;5093249;28;20054;-87
2023/03/10 04:39:56;;;;;;;0.45;0.45;;;;;;;;;;5093669;28;20055;-84
2023/03/10 04:42:26;;;;;;;0.73;0.60;;;;;;;;;;5095227;28;20040;-85
2023/03/10 04:44:55;;;;;;;0.60;0.57;;;;;;;;;;5093495;28;20408;-85
2023/03/10 04:47:23;;;;;;;0.30;0.30;;;;;;;;;;5097366;28;20656;-86
2023/03/10 04:49:52;;;;;;;0.30;0.30;;;;;;;;;;5095696;28;20036;-87
2023/03/10 04:52:20;;;;;;;0.90;0.90;;;;;;;;;;5098491;28;20035;-86
2023/03/10 04:54:48;;;;;;;0.30;0.30;;;;;;;;;;5092868;28;20421;-87
2023/03/10 04:57:16;;;;;;;2.83;0.45;;;;;;;;;;5093589;28;20511;-86
2023/03/10 04:59:46;;;;;;;0.50;0.50;;;;;;;;;;5098274;28;20056;-88
2023/03/10 05:02:14;;;;;;;0.25;0.17;;;;;;;;;;5096101;28;20040;-86
2023/03/10 05:04:43;;;;;;;0.10;0.10;;;;;;;;;;5094141;28;20059;-88
2023/03/10 05:07:11;;;;;;;0.10;0.10;;;;;;;;;;5096001;28;20036;-88
2023/03/10 05:09:41;;;;;;;0.20;0.20;;;;;;;;;;5096285;28;20074;-85
2023/03/10 05:12:10;;;;;;;0.63;0.25;;;;;;;;;;5099238;28;20040;-87
2023/03/10 05:14:39;;;;;;;0.00;0.00;;;;;;;;;;5097258;28;20056;-87
2023/03/10 05:17:08;;;;;;;0.17;0.17;;;;;;;;;;5096918;28;20131;-92
2023/03/10 05:19:37;;;;;;;0.20;0.20;;;;;;;;;;5098313;28;20062;-88
2023/03/10 05:22:07;;;;;;;0.10;0.10;;;;;;;;;;5097983;28;20082;-87
2023/03/10 05:24:35;;;;;;;0.10;0.10;;;;;;;;;;5097154;28;20044;-88
2023/03/10 05:27:03;;;;;;;0.85;0.57;;;;;;;;;;5096708;28;20130;-89
2023/03/10 05:29:32;;;;;;;1.75;0.20;;;;;;;;;;5096363;28;20052;-85
2023/03/10 05:32:00;;;;;;;0.68;0.22;;;;;;;;;;5097668;28;20059;-88
2023/03/10 05:34:30;;;;;;;0.82;0.30;;;;;;;;;;5100265;28;20079;-87
2023/03/10 05:36:59;;;;;;;0.10;0.10;;;;;;;;;;5096809;28;20040;-88
2023/03/10 05:39:27;;;;;;;2.05;0.20;;;;;;;;;;5096561;28;20050;-88
2023/03/10 05:41:56;;;;;;;0.30;0.20;;;;;;;;;;5095899;28;20048;-87
2023/03/10 05:44:24;;;;;;;1.48;0.45;;;;;;;;;;5093171;28;20048;-85
2023/03/10 05:46:53;;;;;;;0.10;0.10;;;;;;;;;;5101085;27;20066;-89
2023/03/10 05:49:21;;;;;;;0.57;0.30;;;;;;;;;;5096577;28;20051;-87
2023/03/10 05:51:51;;;;;;;0.65;0.32;;;;;;;;;;5095376;28;20058;-89
2023/03/10 05:54:20;;;;;;;0.35;0.35;;;;;;;;;;5094628;28;20050;-86
2023/03/10 05:56:48;;;;;;;1.30;0.40;;;;;;;;;;5099180;28;20153;-85
2023/03/10 05:59:17;;;;;;;0.10;0.10;;;;;;;;;;5098587;28;20500;-85
2023/03/10 06:01:45;;;;;;;2.17;0.70;;;;;;;;;;5098769;28;20093;-86
2023/03/10 06:04:14;;;;;;;0.17;0.15;;;;;;;;;;5094369;28;20052;-89
2023/03/10 06:06:42;;;;;;;0.20;0.20;;;;;;;;;;5098027;28;20899;-93
2023/03/10 06:09:12;;;;;;;5.57;0.30;;;;;;;;;;5099087;28;20047;-90
2023/03/10 06:11:41;;;;;;;0.22;0.22;;;;;;;;;;5098638;28;20047;-92
2023/03/10 06:14:10;;;;;;;0.17;0.17;;;;;;;;;;5097091;28;20063;-88
2023/03/10 06:16:38;;;;;;;0.65;0.30;;;;;;;;;;5101267;28;20142;-93
2023/03/10 06:19:07;;;;;;;0.20;0.20;;;;;;;;;;5092880;28;20544;-92
2023/03/10 06:21:35;;;;;;;4.68;0.40;;;;;;;;;;5095030;28;20799;-90
2023/03/10 06:24:03;;;;;;;0.32;0.32;;;;;;;;;;5095418;28;20592;-92
2023/03/10 06:26:33;;;;;;;0.35;0.35;;;;;;;;;;5097481;28;20039;-92
2023/03/10 06:29:02;;;;;;;0.20;0.20;;;;;;;;;;5095122;28;20040;-91
2023/03/10 06:31:30;;;;;;;0.10;0.10;;;;;;;;;;5101111;28;20071;-89
2023/03/10 06:33:59;;;;;;;0.20;0.20;;;;;;;;;;5100180;28;20435;-92
2023/03/10 06:36:31;;;;;;;0.13;0.13;;;;;;;;;;5098123;28;20060;-89
2023/03/10 06:38:59;;;;;;;0.10;0.10;;;;;;;;;;5095909;28;20096;-89
2023/03/10 06:41:28;;;;;;;0.10;0.10;;;;;;;;;;5103873;28;20051;-89
2023/03/10 06:43:57;;;;;;;0.10;0.10;;;;;;;;;;5100364;28;20055;-89
2023/03/10 06:46:27;;;;;;;0.30;0.20;;;;;;;;;;5097488;28;21132;-89
2023/03/10 06:48:56;;;;;;;0.30;0.20;;;;;;;;;;5099645;28;20052;-89
2023/03/10 06:51:25;;;;;;;0.32;0.25;;;;;;;;;;5105472;28;20040;-90
2023/03/10 06:53:54;;;;;;;0.17;0.10;;;;;;;;;;5109345;28;20091;-90
2023/03/10 06:56:23;;;;;;;0.10;0.10;;;;;;;;;;5104067;28;20140;-90
2023/03/10 06:58:51;;;;;;;0.25;0.17;;;;;;;;;;5106359;28;20047;-90
2023/03/10 07:01:23;;;;;;;0.10;0.10;;;;;;;;;;5099000;28;20087;-88
2023/03/10 07:03:51;;;;;;;1.40;0.30;;;;;;;;;;5095973;28;20081;-91
2023/03/10 07:06:22;;;;;;;0.30;0.30;;;;;;;;;;5095989;28;20043;-90
2023/03/10 07:08:50;;;;;;;0.20;0.20;;;;;;;;;;5095708;28;20047;-91
2023/03/10 07:11:19;;;;;;;0.30;0.30;;;;;;;;;;5096660;28;20040;-91
2023/03/10 07:13:48;;;;;;;0.57;0.50;;;;;;;;;;5096912;28;20096;-92
2023/03/10 07:16:16;;;;;;;0.38;0.38;;;;;;;;;;5093105;28;20048;-92
2023/03/10 07:18:46;;;;;;;0.30;0.30;;;;;;;;;;5096936;28;20075;-90
2023/03/10 07:21:16;;;;;;;0.20;0.20;;;;;;;;;;5094061;28;20901;-92
2023/03/10 07:23:45;;;;;;;4.43;0.57;;;;;;;;;;5099582;28;20046;-91
2023/03/10 07:26:14;;;;;;;1.00;0.22;;;;;;;;;;5096525;28;20040;-92
2023/03/10 07:28:43;;;;;;;3.00;0.50;;;;;;;;;;5096797;28;20044;-92
2023/03/10 07:31:12;;;;;;;0.20;0.20;;;;;;;;;;5098481;28;20062;-92
2023/03/10 07:33:41;;;;;;;0.20;0.20;;;;;;;;;;5098040;28;20060;-93
2023/03/10 07:36:12;;;;;;;0.10;0.10;;;;;;;;;;5094306;28;20050;-91
2023/03/10 07:38:41;;;;;;;0.10;0.10;;;;;;;;;;5095893;28;20048;-93
2023/03/10 07:41:10;;;;;;;0.30;0.30;;;;;;;;;;5094855;28;20312;-90
2023/03/10 07:43:39;;;;;;;0.35;0.30;;;;;;;;;;5092716;28;20143;-92
2023/03/10 07:46:09;;;;;;;0.20;0.20;;;;;;;;;;5095946;28;20035;-92
2023/03/10 07:48:37;;;;;;;0.10;0.10;;;;;;;;;;5092455;28;20107;-93
2023/03/10 07:51:06;;;;;;;0.25;0.25;;;;;;;;;;5093948;28;20051;-88
2023/03/10 07:53:36;;;;;;;2.92;0.30;;;;;;;;;;5095259;28;20058;-91
2023/03/10 07:56:05;;;;;;;2.72;0.30;;;;;;;;;;5095867;28;20048;-91
2023/03/10 07:58:34;;;;;;;1.85;0.63;;;;;;;;;;5096687;28;20071;-93
2023/03/10 08:01:03;;;;;;;1.02;0.50;;;;;;;;;;5095184;28;20044;-93
2023/03/10 08:03:32;;;;;;;1.65;0.40;;;;;;;;;;5097349;28;20055;-89
2023/03/10 08:06:04;;;;;;;0.15;0.15;;;;;;;;;;5092674;28;20176;-92
2023/03/10 08:08:33;;;;;;;0.10;0.10;;;;;;;;;;5095578;28;20075;-93
2023/03/10 08:11:05;;;;;;;4.10;0.40;;;;;;;;;;5094506;28;20109;-92
2023/03/10 08:13:33;;;;;;;0.95;0.17;;;;;;;;;;5096970;28;20097;-93
2023/03/10 08:16:02;;;;;;;0.90;0.50;;;;;;;;;;5097906;28;20054;-92
2023/03/10 08:18:31;;;;;;;0.17;0.17;;;;;;;;;;5096190;28;20047;-88
2023/03/10 08:21:00;;;;;;;0.43;0.40;;;;;;;;;;5093993;28;20077;-92
2023/03/10 08:23:28;;;;;;;0.28;0.20;;;;;;;;;;5094151;28;20064;-90
2023/03/10 08:26:00;;;;;;;0.20;0.20;;;;;;;;;;5099697;28;20438;-93
2023/03/10 08:28:31;;;;;;;0.43;0.22;;;;;;;;;;5092406;28;20047;-92
2023/03/10 08:31:00;;;;;;;0.15;0.15;;;;;;;;;;5093380;28;20140;-93
2023/03/10 08:33:32;;;;;;;0.52;0.28;;;;;;;;;;5097642;28;20209;-87
2023/03/10 08:36:05;;;;;;;1.23;1.05;;;;;;;;;;5098123;28;20068;-90
2023/03/10 08:38:33;;;;;;;0.45;0.28;;;;;;;;;;5098663;28;20162;-91
2023/03/10 08:41:09;;;;;;;1.20;0.57;;;;;;;;;;5099025;28;20047;-89
2023/03/10 08:43:39;;;;;;;1.08;0.22;;;;;;;;;;5098600;28;20558;-90
2023/03/10 08:46:08;;;;;;;0.68;0.17;;;;;;;;;;5099895;28;20407;-89
2023/03/10 08:48:37;;;;;;;3.03;0.17;;;;;;;;;;5099383;28;20076;-89
2023/03/10 08:51:08;;;;;;;0.47;0.40;;;;;;;;;;5099854;28;20134;-91
2023/03/10 08:53:38;;;;;;;0.93;0.93;;;;;;;;;;5100875;28;20545;-90
2023/03/10 08:56:07;;;;;;;0.40;0.20;;;;;;;;;;5097617;28;20050;-91
2023/03/10 08:58:36;;;;;;;0.55;0.22;;;;;;;;;;5101886;28;20051;-93
2023/03/10 09:01:07;;;;;;;0.40;0.30;;;;;;;;;;5098370;28;20091;-93
2023/03/10 09:03:35;;;;;;;0.10;0.10;;;;;;;;;;5100665;28;20421;-90
2023/03/10 09:06:04;;;;;;;0.32;0.30;;;;;;;;;;5099660;28;20051;-92
2023/03/10 09:08:33;;;;;;;0.20;0.20;;;;;;;;;;5101916;28;20466;-92
2023/03/10 09:11:02;;;;;;;1.85;0.30;;;;;;;;;;5098221;28;20126;-91
2023/03/10 09:13:31;;;;;;;0.60;0.20;;;;;;;;;;5098366;28;20571;-89
2023/03/10 09:16:00;;;;;;;0.10;0.10;;;;;;;;;;5099095;28;20056;-90
2023/03/10 09:18:31;;;;;;;0.88;0.30;;;;;;;;;;5099632;28;20511;-92
2023/03/10 09:20:59;;;;;;;0.10;0.10;;;;;;;;;;5102806;28;20051;-92
2023/03/10 09:23:28;;;;;;;0.10;0.10;;;;;;;;;;5099574;28;20043;-90
2023/03/10 09:25:57;;;;;;;0.50;0.50;;;;;;;;;;5100159;28;20050;-91
2023/03/10 09:28:26;;;;;;;7.47;0.43;;;;;;;;;;5098727;28;21000;-90
2023/03/10 09:30:55;;;;;;;0.28;0.22;;;;;;;;;;5097019;28;20055;-88
2023/03/10 09:33:24;;;;;;;0.70;0.40;;;;;;;;;;5096562;28;20411;-90
2023/03/10 09:35:56;;;;;;;0.20;0.20;;;;;;;;;;5098326;28;20046;-90
2023/03/10 09:38:34;;;;;;;0.85;0.40;;;;;;;;;;5098594;28;20059;-90
2023/03/10 09:41:07;;;;;;;6.13;0.30;;;;;;;;;;5096166;28;20061;-90
2023/03/10 09:43:38;;;;;;;0.10;0.10;;;;;;;;;;5097544;28;20109;-90
2023/03/10 09:46:12;;;;;;;0.55;0.20;;;;;;;;;;5096030;28;20127;-89
2023/03/10 09:48:44;;;;;;;5.57;0.97;;;;;;;;;;5096310;28;20062;-91
2023/03/10 09:51:16;;;;;;;0.68;0.63;;;;;;;;;;5097427;28;20121;-89
2023/03/10 09:53:53;;;;;;;0.70;0.30;;;;;;;;;;5097612;28;20536;-88
2023/03/10 09:56:26;;;;;;;0.57;0.35;;;;;;;;;;5102793;28;20481;-88
2023/03/10 09:58:59;;;;;;;0.20;0.20;;;;;;;;;;5107276;28;20048;-88
2023/03/10 10:01:29;;;;;;;0.10;0.10;;;;;;;;;;5113419;28;20051;-93
2023/03/10 10:04:10;;;;;;;0.40;0.40;;;;;;;;;;5107247;28;20074;-93
2023/03/10 10:06:45;;;;;;;0.30;0.30;;;;;;;;;;5104028;28;20060;-90
2023/03/10 10:09:15;;;;;;;0.65;0.60;;;;;;;;;;5096473;28;20097;-90
2023/03/10 10:11:44;;;;;;;0.13;0.10;;;;;;;;;;5095255;28;20135;-90
2023/03/10 10:14:17;;;;;;;0.90;0.32;;;;;;;;;;5093962;28;20047;-93
2023/03/10 10:16:58;;;;;;;0.40;0.30;;;;;;;;;;5100790;28;20134;-92
2023/03/10 10:19:27;;;;;;;0.15;0.10;;;;;;;;;;5099352;28;20134;-91
2023/03/10 10:22:00;;;;;;;0.10;0.10;;;;;;;;;;5099617;28;20151;-92
2023/03/10 10:24:29;;;;;;;0.08;0.08;;;;;;;;;;5098832;28;20079;-86
2023/03/10 10:26:58;;;;;;;0.95;0.20;;;;;;;;;;5096333;28;20768;-95
2023/03/10 10:29:27;;;;;;;0.20;0.20;;;;;;;;;;5096627;28;20047;-88
2023/03/10 10:32:07;;;;;;;0.70;0.22;;;;;;;;;;5096475;28;20052;-92
2023/03/10 10:34:36;;;;;;;0.10;0.10;;;;;;;;;;5095450;28;20067;-89
2023/03/10 10:37:20;;;;;;;1.98;0.17;;;;;;;;;;5098248;28;20146;-88
2023/03/10 10:39:50;;;;;;;0.20;0.20;;;;;;;;;;5094600;28;20135;-88
2023/03/10 10:42:22;;;;;;;0.10;0.10;;;;;;;;;;5098015;28;20138;-90
2023/03/10 10:44:53;;;;;;;0.10;0.10;;;;;;;;;;5099188;28;20514;-91
2023/03/10 10:47:29;;;;;;;1.45;0.20;;;;;;;;;;5096002;28;20044;-89
2023/03/10 10:50:11;;;;;;;0.05;0.05;;;;;;;;;;5098969;28;20040;-90
2023/03/10 10:52:41;;;;;;;0.00;0.00;;;;;;;;;;5097405;28;20388;-91
2023/03/10 10:55:22;;;;;;;0.00;0.00;;;;;;;;;;5098283;28;20050;-92
2023/03/10 10:57:55;;;;;;;0.70;0.10;;;;;;;;;;5092249;27;20051;-92
2023/03/10 11:00:25;;;;;;;0.20;0.10;;;;;;;;;;5093857;28;20048;-88
2023/03/10 11:02:54;;;;;;;0.00;0.00;;;;;;;;;;5099266;28;20483;-88
2023/03/10 11:05:23;;;;;;;0.38;0.20;;;;;;;;;;5098198;28;20056;-90
2023/03/10 11:07:53;;;;;;;0.00;0.00;;;;;;;;;;5097758;28;20076;-90
2023/03/10 11:10:28;;;;;;;0.10;0.10;;;;;;;;;;5098911;28;20134;-91
2023/03/10 11:12:59;;;;;;;0.15;0.10;;;;;;;;;;5094014;28;20056;-91
2023/03/10 11:15:30;;;;;;;0.15;0.10;;;;;;;;;;5096304;28;20156;-88
2023/03/10 11:18:01;;;;;;;0.00;0.00;;;;;;;;;;5097094;28;20047;-90
2023/03/10 11:20:32;;;;;;;0.10;0.10;;;;;;;;;;5100097;28;20140;-86
2023/03/10 11:23:08;;;;;;;0.10;0.10;;;;;;;;;;5098227;28;20058;-88
2023/03/10 11:25:39;;;;;;;0.10;0.10;;;;;;;;;;5096847;28;20054;-88
2023/03/10 11:28:16;;;;;;;0.00;0.00;;;;;;;;;;5094795;28;20147;-87
2023/03/10 11:30:47;;;;;;;0.10;0.10;;;;;;;;;;5096000;28;20048;-89
2023/03/10 11:33:19;;;;;;;0.63;0.47;;;;;;;;;;5095778;28;20059;-89
2023/03/10 11:35:50;;;;;;;0.15;0.15;;;;;;;;;;5093326;28;20036;-88
2023/03/10 11:38:36;;;;;;;0.10;0.10;;;;;;;;;;5097096;28;20449;-91
2023/03/10 11:41:11;;;;;;;0.00;0.00;;;;;;;;;;5094158;28;20056;-89
2023/03/10 11:43:46;;;;;;;0.03;0.03;;;;;;;;;;5094285;28;20748;-89
2023/03/10 11:46:19;;;;;;;0.20;0.20;;;;;;;;;;5096257;28;20123;-88
2023/03/10 11:48:53;;;;;;;0.10;0.10;;;;;;;;;;5097765;28;20044;-90
2023/03/10 11:51:27;;;;;;;0.10;0.10;;;;;;;;;;5096887;28;20134;-88
2023/03/10 11:53:58;;;;;;;0.20;0.20;;;;;;;;;;5093326;28;20055;-89
2023/03/10 11:56:29;;;;;;;0.20;0.20;;;;;;;;;;5095019;28;20093;-88
2023/03/10 11:59:01;;;;;;;0.32;0.20;;;;;;;;;;5097526;28;20497;-88
2023/03/10 12:01:32;;;;;;;0.25;0.13;;;;;;;;;;5094520;28;20051;-87
2023/03/10 12:04:07;;;;;;;0.05;0.05;;;;;;;;;;5094233;28;20048;-88
2023/03/10 12:06:36;;;;;;;0.10;0.10;;;;;;;;;;5097003;28;20058;-87
2023/03/10 12:09:07;;;;;;;2.83;0.17;;;;;;;;;;5096623;28;20055;-89
2023/03/10 12:11:38;;;;;;;0.03;0.03;;;;;;;;;;5094115;28;20051;-88
2023/03/10 12:14:06;;;;;;;0.10;0.10;;;;;;;;;;5095224;28;20190;-90
2023/03/10 12:16:37;;;;;;;0.00;0.00;;;;;;;;;;5094172;28;20113;-88
2023/03/10 12:19:06;;;;;;;0.00;0.00;;;;;;;;;;5093723;28;20058;-87
2023/03/10 12:21:35;;;;;;;0.10;0.10;;;;;;;;;;5093699;28;20406;-86
2023/03/10 12:24:04;;;;;;;0.00;0.00;;;;;;;;;;5098224;28;20047;-87
2023/03/10 12:26:54;;;;;;;0.05;0.05;;;;;;;;;;5091796;28;20052;-87
2023/03/10 12:29:37;;;;;;;0.10;0.10;;;;;;;;;;5095183;28;20055;-89
2023/03/10 12:32:05;;;;;;;0.10;0.10;;;;;;;;;;5095124;28;21097;-88
2023/03/10 12:34:34;;;;;;;0.22;0.10;;;;;;;;;;5094696;28;20139;-90
2023/03/10 12:37:07;;;;;;;0.10;0.10;;;;;;;;;;5094750;28;20131;-88
2023/03/10 12:39:42;;;;;;;0.25;0.20;;;;;;;;;;5093463;28;20058;-88
2023/03/10 12:42:27;;;;;;;0.10;0.10;;;;;;;;;;5093867;28;20056;-88
2023/03/10 12:45:03;;;;;;;0.00;0.00;;;;;;;;;;5092785;28;20097;-89
2023/03/10 12:47:47;;;;;;;0.00;0.00;;;;;;;;;;5089041;28;20051;-86
2023/03/10 12:50:21;;;;;;;0.00;0.00;;;;;;;;;;5091939;28;20048;-89
2023/03/10 12:52:53;;;;;;;0.00;0.00;;;;;;;;;;5091575;28;20381;-85
2023/03/10 12:55:24;;;;;;;0.10;0.10;;;;;;;;;;5095991;28;20077;-87
2023/03/10 12:58:03;;;;;;;0.00;0.00;;;;;;;;;;5093498;28;20043;-85
2023/03/10 13:00:39;;;;;;;0.10;0.10;;;;;;;;;;5095689;28;20055;-85
2023/03/10 13:03:15;;;;;;;0.00;0.00;;;;;;;;;;5100218;28;20067;-87
2023/03/10 13:05:56;;;;;;;5.25;0.20;;;;;;;;;;5105895;28;20056;-86
2023/03/10 13:08:28;;;;;;;0.00;0.00;;;;;;;;;;5100702;28;20079;-88
2023/03/10 13:13:32;;;;;;;0.10;0.10;;;;;;;;;;5093262;28;20576;-89
2023/03/10 13:16:04;;;;;;;2.83;0.30;;;;;;;;;;5091478;28;20060;-86
2023/03/10 13:18:33;;;;;;;0.65;0.20;;;;;;;;;;5094470;28;20491;-86
2023/03/10 13:21:02;;;;;;;0.10;0.10;;;;;;;;;;5093736;28;20134;-89
2023/03/10 13:23:33;;;;;;;0.00;0.00;;;;;;;;;;5099462;28;20052;-86
2023/03/10 13:26:02;;;;;;;0.20;0.10;;;;;;;;;;5097298;27;20412;-89
2023/03/10 13:28:33;;;;;;;0.00;0.00;;;;;;;;;;5099881;28;20555;-86
2023/03/10 13:31:18;;;;;;;0.00;0.00;;;;;;;;;;5097326;28;20064;-89
2023/03/10 13:33:48;;;;;;;0.10;0.10;;;;;;;;;;5098755;28;20403;-88
2023/03/10 13:36:22;;;;;;;0.10;0.10;;;;;;;;;;5096268;28;20063;-89
2023/03/10 13:38:51;;;;;;;0.00;0.00;;;;;;;;;;5101374;28;20108;-90
2023/03/10 13:41:20;;;;;;;0.73;0.30;;;;;;;;;;5097940;28;20488;-87
2023/03/10 13:43:51;;;;;;;0.05;0.05;;;;;;;;;;5099120;28;20104;-87
2023/03/10 13:46:23;;;;;;;0.35;0.22;;;;;;;;;;5099755;28;20071;-89
2023/03/10 13:48:52;;;;;;;0.00;0.00;;;;;;;;;;5099071;28;20048;-90
2023/03/10 13:51:22;;;;;;;0.10;0.10;;;;;;;;;;5099465;28;20425;-88
2023/03/10 13:53:52;;;;;;;0.10;0.10;;;;;;;;;;5094965;28;20055;-90
2023/03/10 13:56:22;;;;;;;0.00;0.00;;;;;;;;;;5096503;28;20452;-86
2023/03/10 13:58:52;;;;;;;0.43;0.30;;;;;;;;;;5097760;28;20066;-88
2023/03/10 14:01:23;;;;;;;0.00;0.00;;;;;;;;;;5096545;28;20102;-88
2023/03/10 14:03:53;;;;;;;0.10;0.10;;;;;;;;;;5092539;28;20062;-87
2023/03/10 14:06:22;;;;;;;13.68;0.85;;;;;;;;;;5096480;28;20051;-86
2023/03/10 14:08:51;;;;;;;0.10;0.10;;;;;;;;;;5093014;28;20055;-85
2023/03/10 14:11:24;;;;;;;0.00;0.00;;;;;;;;;;5095220;28;20092;-88
2023/03/10 14:13:52;;;;;;;0.08;0.08;;;;;;;;;;5095375;28;20058;-86
2023/03/10 14:16:22;;;;;;;0.00;0.00;;;;;;;;;;5096643;28;20476;-90
2023/03/10 14:18:51;;;;;;;0.00;0.00;;;;;;;;;;5093488;28;21026;-85
2023/03/10 14:21:32;;;;;;;0.00;0.00;;;;;;;;;;5095582;28;20416;-91
2023/03/10 14:24:05;;;;;;;0.13;0.13;;;;;;;;;;5099632;28;20405;-87
2023/03/10 14:26:33;;;;;;;0.03;0.03;;;;;;;;;;5092666;28;20154;-85
2023/03/10 14:29:03;;;;;;;3.50;0.20;;;;;;;;;;5095974;28;20434;-86
2023/03/10 14:31:33;;;;;;;0.00;0.00;;;;;;;;;;5095495;28;20056;-87
2023/03/10 14:34:02;;;;;;;0.10;0.10;;;;;;;;;;5097311;28;20102;-83
2023/03/10 14:36:31;;;;;;;0.03;0.03;;;;;;;;;;5094275;28;20131;-85
2023/03/10 14:39:00;;;;;;;0.28;0.20;;;;;;;;;;5098607;28;20507;-87
2023/03/10 14:41:30;;;;;;;0.88;0.10;;;;;;;;;;5096206;28;20047;-89
2023/03/10 14:43:58;;;;;;;0.00;0.00;;;;;;;;;;5094380;28;20048;-86
2023/03/10 14:46:27;;;;;;;0.10;0.10;;;;;;;;;;5097732;28;20166;-87
2023/03/10 14:48:58;;;;;;;0.08;0.08;;;;;;;;;;5094050;28;20044;-86
2023/03/10 14:51:27;;;;;;;0.08;0.08;;;;;;;;;;5096038;28;20054;-86
2023/03/10 14:54:03;;;;;;;0.30;0.20;;;;;;;;;;5094276;28;20058;-88
2023/03/10 14:56:32;;;;;;;0.10;0.10;;;;;;;;;;5093001;28;20040;-86
2023/03/10 14:59:01;;;;;;;0.10;0.10;;;;;;;;;;5092955;28;20071;-85
2023/03/10 15:01:31;;;;;;;0.10;0.10;;;;;;;;;;5096865;28;20587;-88
2023/03/10 15:04:01;;;;;;;0.28;0.28;;;;;;;;;;5095655;28;20036;-90